createdAt,value
2019-05-07T00:01:56.281Z,68.40
2019-05-07T00:04:25.666Z,68.60
2019-05-07T00:06:55.038Z,68.80
2019-05-07T00:09:36.918Z,68.80
2019-05-07T00:12:06.426Z,68.80
2019-05-07T00:14:35.933Z,69.00
2019-05-07T00:17:05.490Z,69.20
2019-05-07T00:19:36.319Z,69.50
2019-05-07T00:22:05.855Z,69.60
2019-05-07T00:24:35.357Z,70.00
2019-05-07T00:27:12.948Z,70.00
2019-05-07T00:29:42.877Z,70.20
2019-05-07T00:32:12.534Z,70.20
2019-05-07T00:34:43.622Z,70.30
2019-05-07T00:37:18.397Z,70.50
2019-05-07T00:39:49.466Z,70.50
2019-05-07T00:42:22.098Z,70.60
2019-05-07T00:45:16.979Z,70.50
2019-05-07T00:47:36.302Z,70.50
2019-05-07T00:50:22.720Z,70.70
2019-05-07T00:52:52.457Z,70.70
2019-05-07T00:55:22.740Z,70.90
2019-05-07T00:57:52.658Z,70.90
2019-05-07T01:00:22.428Z,71.10
2019-05-07T01:02:52.580Z,71.10
2019-05-07T01:05:23.269Z,71.30
2019-05-07T01:07:53.035Z,71.20
2019-05-07T01:10:22.630Z,71.30
2019-05-07T01:12:53.138Z,71.30
2019-05-07T01:15:31.183Z,71.60
2019-05-07T01:17:53.822Z,71.80
2019-05-07T01:20:23.258Z,72.00
2019-05-07T01:22:54.397Z,72.20
2019-05-07T01:25:23.787Z,72.50
2019-05-07T01:27:53.332Z,72.50
2019-05-07T01:30:23.211Z,72.70
2019-05-07T01:33:12.047Z,72.80
2019-05-07T01:35:44.970Z,73.20
2019-05-07T01:38:16.107Z,73.30
2019-05-07T01:40:45.554Z,73.30
2019-05-07T01:43:14.992Z,73.40
2019-05-07T01:45:49.487Z,73.40
2019-05-07T01:48:16.287Z,73.30
2019-05-07T01:50:45.755Z,73.30
2019-05-07T01:53:15.182Z,73.40
2019-05-07T01:55:44.541Z,73.40
2019-05-07T01:58:33.458Z,73.50
2019-05-07T02:01:06.252Z,73.60
2019-05-07T02:03:46.349Z,73.90
2019-05-07T02:06:26.658Z,74.20
2019-05-07T02:09:16.696Z,74.50
2019-05-07T02:12:02.899Z,74.80
2019-05-07T02:14:33.051Z,75.10
2019-05-07T02:17:09.723Z,75.30
2019-05-07T02:19:42.036Z,75.10
2019-05-07T02:22:13.269Z,75.00
2019-05-07T02:24:43.519Z,74.90
2019-05-07T02:27:13.024Z,74.90
2019-05-07T02:29:43.511Z,74.80
2019-05-07T02:32:13.491Z,75.00
2019-05-07T02:34:44.262Z,74.90
2019-05-07T02:37:16.790Z,75.10
2019-05-07T02:39:48.935Z,75.10
2019-05-07T02:42:19.466Z,75.20
2019-05-07T02:44:59.534Z,76.10
2019-05-07T02:47:33.212Z,75.30
2019-05-07T02:50:05.320Z,75.30
2019-05-07T02:52:53.739Z,75.30
2019-05-07T02:55:35.087Z,75.40
2019-05-07T02:58:04.657Z,75.70
2019-05-07T03:00:34.441Z,76.20
2019-05-07T03:03:16.427Z,76.30
2019-05-07T03:05:47.399Z,76.50
2019-05-07T03:08:16.853Z,76.80
2019-05-07T03:10:46.441Z,77.10
2019-05-07T03:13:17.502Z,77.40
2019-05-07T03:15:47.004Z,77.60
2019-05-07T03:18:18.926Z,77.70
2019-05-07T03:20:53.515Z,77.90
2019-05-07T03:23:25.494Z,78.10
2019-05-07T03:26:18.591Z,78.20
2019-05-07T03:28:55.663Z,78.30
2019-05-07T03:31:55.587Z,78.40
2019-05-07T03:34:37.421Z,78.50
2019-05-07T03:37:08.613Z,78.60
2019-05-07T03:39:38.036Z,78.80
2019-05-07T03:42:07.559Z,79.00
2019-05-07T03:44:44.727Z,79.00
2019-05-07T03:47:38.902Z,79.10
2019-05-07T03:50:14.198Z,79.20
2019-05-07T03:52:42.838Z,79.20
2019-05-07T03:55:14.580Z,79.30
2019-05-07T03:57:44.134Z,79.40
2019-05-07T04:00:13.869Z,79.40
2019-05-07T04:02:44.037Z,79.00
2019-05-07T04:05:14.300Z,79.00
2019-05-07T04:07:43.889Z,79.20
2019-05-07T04:10:15.155Z,79.10
2019-05-07T04:12:45.805Z,79.10
2019-05-07T04:15:19.178Z,79.10
2019-05-07T04:17:46.373Z,79.40
2019-05-07T04:20:16.229Z,79.30
2019-05-07T04:22:45.731Z,79.20
2019-05-07T04:25:28.893Z,79.00
2019-05-07T04:28:16.539Z,79.20
2019-05-07T04:30:46.067Z,79.40
2019-05-07T04:33:17.146Z,79.20
2019-05-07T04:36:08.561Z,79.20
2019-05-07T04:38:38.604Z,79.30
2019-05-07T04:41:08.063Z,79.30
2019-05-07T04:43:37.497Z,79.10
2019-05-07T04:46:26.367Z,78.60
2019-05-07T04:48:55.818Z,78.60
2019-05-07T04:51:26.920Z,78.40
2019-05-07T04:53:56.394Z,78.20
2019-05-07T04:56:25.821Z,78.20
2019-05-07T04:58:55.195Z,77.90
2019-05-07T05:01:45.998Z,77.60
2019-05-07T05:04:31.516Z,77.40
2019-05-07T05:07:05.441Z,77.20
2019-05-07T05:09:35.961Z,76.30
2019-05-07T05:12:05.558Z,75.90
2019-05-07T05:14:35.019Z,75.60
2019-05-07T05:17:04.546Z,75.50
2019-05-07T05:19:33.977Z,74.80
2019-05-07T05:22:07.788Z,74.80
2019-05-07T05:24:42.431Z,74.40
2019-05-07T05:27:12.258Z,74.10
2019-05-07T05:29:42.989Z,73.70
2019-05-07T05:32:12.478Z,73.70
2019-05-07T05:34:42.578Z,73.30
2019-05-07T05:37:12.215Z,73.30
2019-05-07T05:39:42.700Z,73.00
2019-05-07T05:42:13.933Z,72.50
2019-05-07T05:45:05.459Z,71.90
2019-05-07T05:47:42.882Z,71.60
2019-05-07T05:50:13.527Z,71.00
2019-05-07T05:52:52.046Z,70.60
2019-05-07T05:55:22.708Z,70.70
2019-05-07T05:58:12.218Z,70.50
2019-05-07T06:00:43.062Z,70.40
2019-05-07T06:03:15.330Z,69.90
2019-05-07T06:05:49.342Z,70.00
2019-05-07T06:08:29.523Z,69.80
2019-05-07T06:11:06.565Z,69.30
2019-05-07T06:13:37.743Z,68.40
2019-05-07T06:16:15.531Z,68.60
2019-05-07T06:18:52.441Z,67.60
2019-05-07T06:21:32.348Z,67.60
2019-05-07T06:24:03.573Z,66.90
2019-05-07T06:26:33.086Z,66.40
2019-05-07T06:29:02.549Z,65.80
2019-05-07T06:31:32.771Z,64.90
2019-05-07T06:34:03.650Z,64.80
2019-05-07T06:36:34.818Z,64.40
2019-05-07T06:39:12.562Z,64.10
2019-05-07T06:42:02.094Z,63.50
2019-05-07T06:44:32.035Z,63.30
2019-05-07T06:47:02.452Z,62.90
2019-05-07T06:49:32.503Z,62.80
2019-05-07T06:52:03.008Z,62.80
2019-05-07T06:54:32.694Z,63.00
2019-05-07T06:57:02.174Z,62.60
2019-05-07T06:59:36.442Z,62.00
2019-05-07T07:04:59.968Z,62.60
2019-05-07T07:07:41.995Z,62.60
2019-05-07T07:10:12.938Z,62.50
2019-05-07T07:12:42.612Z,63.20
2019-05-07T07:15:12.367Z,61.50
2019-05-07T07:17:42.683Z,60.90
2019-05-07T07:20:13.659Z,60.00
2019-05-07T07:22:43.123Z,59.40
2019-05-07T07:25:12.651Z,58.20
2019-05-07T07:27:42.965Z,57.90
2019-05-07T07:30:21.731Z,57.60
2019-05-07T07:32:52.359Z,57.40
2019-05-07T07:35:22.535Z,57.20
2019-05-07T07:37:53.061Z,57.50
2019-05-07T07:40:43.630Z,58.00
2019-05-07T07:43:13.092Z,57.80
2019-05-07T07:45:43.616Z,57.00
2019-05-07T07:48:13.310Z,56.10
2019-05-07T07:50:42.879Z,55.60
2019-05-07T07:53:12.988Z,55.50
2019-05-07T07:55:44.610Z,55.40
2019-05-07T07:58:18.743Z,55.10
2019-05-07T08:00:52.191Z,55.50
2019-05-07T08:03:22.583Z,55.20
2019-05-07T08:05:53.134Z,54.10
2019-05-07T08:08:22.613Z,54.00
2019-05-07T08:10:52.218Z,53.40
2019-05-07T08:13:22.932Z,53.00
2019-05-07T08:15:52.474Z,53.00
2019-05-07T08:18:22.305Z,53.20
2019-05-07T08:20:52.002Z,53.50
2019-05-07T08:23:22.690Z,53.40
2019-05-07T08:25:52.713Z,53.70
2019-05-07T08:28:23.365Z,52.50
2019-05-07T08:31:03.741Z,51.50
2019-05-07T08:33:44.211Z,50.70
2019-05-07T08:36:15.550Z,50.10
2019-05-07T08:38:53.108Z,49.60
2019-05-07T08:41:24.227Z,49.70
2019-05-07T08:44:08.263Z,48.10
2019-05-07T08:46:37.033Z,47.90
2019-05-07T08:49:08.485Z,47.50
2019-05-07T08:51:38.084Z,47.00
2019-05-07T08:54:08.682Z,46.20
2019-05-07T08:56:38.587Z,45.90
2019-05-07T08:59:08.253Z,46.70
2019-05-07T09:01:39.710Z,47.20
2019-05-07T09:04:09.250Z,46.30
2019-05-07T09:06:38.694Z,46.00
2019-05-07T09:09:13.200Z,46.50
2019-05-07T09:11:43.029Z,46.50
2019-05-07T09:14:13.626Z,45.60
2019-05-07T09:16:43.112Z,45.70
2019-05-07T09:19:12.957Z,45.00
2019-05-07T09:21:43.086Z,44.50
2019-05-07T09:24:12.941Z,44.80
2019-05-07T09:26:47.187Z,45.70
2019-05-07T09:29:29.049Z,46.00
2019-05-07T09:32:00.196Z,45.00
2019-05-07T09:34:32.678Z,45.10
2019-05-07T09:37:12.303Z,45.80
2019-05-07T09:39:42.734Z,46.50
2019-05-07T09:42:12.305Z,45.70
2019-05-07T09:44:42.456Z,46.30
2019-05-07T09:47:12.929Z,47.60
2019-05-07T09:49:42.495Z,48.40
2019-05-07T09:52:24.454Z,49.60
2019-05-07T09:54:53.900Z,49.30
2019-05-07T09:57:30.991Z,49.40
2019-05-07T09:59:54.579Z,49.50
2019-05-07T10:02:24.262Z,48.10
2019-05-07T10:04:53.864Z,48.20
2019-05-07T10:07:23.440Z,46.80
2019-05-07T10:09:52.911Z,46.50
2019-05-07T10:12:46.699Z,45.50
2019-05-07T10:15:19.011Z,44.60
2019-05-07T10:17:52.934Z,43.20
2019-05-07T10:20:22.823Z,42.40
2019-05-07T10:22:52.209Z,42.10
2019-05-07T10:25:22.458Z,41.80
2019-05-07T10:27:53.729Z,41.70
2019-05-07T10:30:23.326Z,41.80
2019-05-07T10:32:52.918Z,40.80
2019-05-07T10:35:30.948Z,40.20
2019-05-07T10:38:01.894Z,39.70
2019-05-07T10:40:32.568Z,38.80
2019-05-07T10:43:01.722Z,39.70
2019-05-07T10:45:49.107Z,39.50
2019-05-07T10:48:32.305Z,40.70
2019-05-07T10:51:06.059Z,41.60
2019-05-07T10:53:42.466Z,41.40
2019-05-07T10:56:12.174Z,41.60
2019-05-07T10:58:41.811Z,41.90
2019-05-07T11:01:13.952Z,42.50
2019-05-07T11:03:43.385Z,42.20
2019-05-07T11:06:13.011Z,41.90
2019-05-07T11:08:42.862Z,40.80
2019-05-07T11:11:12.434Z,41.20
2019-05-07T11:13:42.230Z,41.30
2019-05-07T11:16:13.542Z,41.10
2019-05-07T11:18:47.387Z,41.30
2019-05-07T11:21:18.615Z,41.00
2019-05-07T11:23:48.070Z,41.20
2019-05-07T11:26:17.498Z,41.10
2019-05-07T11:28:48.603Z,40.80
2019-05-07T11:31:18.045Z,41.20
2019-05-07T11:33:47.522Z,40.90
2019-05-07T11:36:17.059Z,40.30
2019-05-07T11:38:46.497Z,40.10
2019-05-07T11:41:16.932Z,40.20
2019-05-07T11:43:48.027Z,39.70
2019-05-07T11:46:19.190Z,39.10
2019-05-07T11:48:52.755Z,38.90
2019-05-07T11:51:42.634Z,39.00
2019-05-07T11:54:16.038Z,37.60
2019-05-07T11:56:45.494Z,39.10
2019-05-07T11:59:14.942Z,39.20
2019-05-07T12:01:48.171Z,39.40
2019-05-07T12:04:17.877Z,39.70
2019-05-07T12:06:47.394Z,39.40
2019-05-07T12:09:16.935Z,38.60
2019-05-07T12:11:46.390Z,39.60
2019-05-07T12:14:28.139Z,38.60
2019-05-07T12:16:47.002Z,37.90
2019-05-07T12:19:16.702Z,36.80
2019-05-07T12:21:46.380Z,37.30
2019-05-07T12:24:16.494Z,36.90
2019-05-07T12:26:47.798Z,36.60
2019-05-07T12:29:18.502Z,36.90
2019-05-07T12:31:49.611Z,36.00
2019-05-07T12:34:22.792Z,36.80
2019-05-07T12:36:52.433Z,35.50
2019-05-07T12:39:22.113Z,34.90
2019-05-07T12:41:52.437Z,35.50
2019-05-07T12:44:24.477Z,36.10
2019-05-07T12:46:53.911Z,36.20
2019-05-07T12:49:23.350Z,36.50
2019-05-07T12:51:55.008Z,36.50
2019-05-07T12:54:29.884Z,36.40
2019-05-07T12:56:59.354Z,36.50
2019-05-07T12:59:28.812Z,36.50
2019-05-07T13:04:52.126Z,35.80
2019-05-07T13:07:23.435Z,35.50
2019-05-07T13:09:59.834Z,35.20
2019-05-07T13:12:29.276Z,34.40
2019-05-07T13:14:58.718Z,34.70
2019-05-07T13:17:28.177Z,35.40
2019-05-07T13:19:57.620Z,35.90
2019-05-07T13:22:27.086Z,35.90
2019-05-07T13:24:56.529Z,36.40
2019-05-07T13:27:26.454Z,37.00
2019-05-07T13:29:55.922Z,37.40
2019-05-07T13:32:31.902Z,37.80
2019-05-07T13:35:02.645Z,38.80
2019-05-07T13:37:34.094Z,37.80
2019-05-07T13:40:07.098Z,36.60
2019-05-07T13:42:38.391Z,35.90
2019-05-07T13:45:22.547Z,36.20
2019-05-07T13:47:54.283Z,35.80
2019-05-07T13:50:26.223Z,36.30
2019-05-07T13:52:55.754Z,35.80
2019-05-07T13:55:25.282Z,36.40
2019-05-07T13:57:56.409Z,36.20
2019-05-07T14:00:42.670Z,36.50
2019-05-07T14:03:12.137Z,35.70
2019-05-07T14:05:42.643Z,35.40
2019-05-07T14:08:14.270Z,35.10
2019-05-07T14:10:44.102Z,34.20
2019-05-07T14:13:17.456Z,33.10
2019-05-07T14:16:03.817Z,32.30
2019-05-07T14:18:39.131Z,32.80
2019-05-07T14:21:08.279Z,31.00
2019-05-07T14:23:52.117Z,29.70
2019-05-07T14:26:23.753Z,29.30
2019-05-07T14:28:54.277Z,30.50
2019-05-07T14:31:23.790Z,31.30
2019-05-07T14:33:54.908Z,30.20
2019-05-07T14:36:38.927Z,27.90
2019-05-07T14:39:09.485Z,26.30
2019-05-07T14:41:39.004Z,24.20
2019-05-07T14:44:13.185Z,23.30
2019-05-07T14:46:50.286Z,23.50
2019-05-07T14:49:14.051Z,24.00
2019-05-07T14:51:43.662Z,24.90
2019-05-07T14:54:18.282Z,26.40
2019-05-07T14:56:47.497Z,28.20
2019-05-07T14:59:17.003Z,29.00
2019-05-07T15:01:47.463Z,29.70
2019-05-07T15:04:16.910Z,30.30
2019-05-07T15:06:47.705Z,31.00
2019-05-07T15:09:17.145Z,32.30
2019-05-07T15:11:47.645Z,32.50
2019-05-07T15:14:17.348Z,33.50
2019-05-07T15:16:47.791Z,34.20
2019-05-07T15:19:17.376Z,34.60
2019-05-07T15:21:47.758Z,35.20
2019-05-07T15:24:17.382Z,34.60
2019-05-07T15:26:47.917Z,32.90
2019-05-07T15:29:17.429Z,32.80
2019-05-07T15:32:00.582Z,33.50
2019-05-07T15:34:30.174Z,33.30
2019-05-07T15:37:01.721Z,33.90
2019-05-07T15:39:32.809Z,34.40
2019-05-07T15:42:02.570Z,35.00
2019-05-07T15:44:32.095Z,35.30
2019-05-07T15:47:03.266Z,35.60
2019-05-07T15:49:32.716Z,35.40
2019-05-07T15:52:05.495Z,34.20
2019-05-07T15:54:34.968Z,31.60
2019-05-07T15:57:18.210Z,29.60
2019-05-07T15:59:49.302Z,29.00
2019-05-07T16:02:22.529Z,29.90
2019-05-07T16:04:51.554Z,30.80
2019-05-07T16:07:22.508Z,32.40
2019-05-07T16:09:52.596Z,32.90
2019-05-07T16:12:22.804Z,33.70
2019-05-07T16:14:52.586Z,33.80
2019-05-07T16:17:26.884Z,33.40
2019-05-07T16:20:08.859Z,33.70
2019-05-07T16:22:45.679Z,34.00
2019-05-07T16:25:15.221Z,34.50
2019-05-07T16:27:44.734Z,35.30
2019-05-07T16:30:15.132Z,36.30
2019-05-07T16:32:44.611Z,37.10
2019-05-07T16:35:16.145Z,37.30
2019-05-07T16:37:45.394Z,37.50
2019-05-07T16:40:14.989Z,37.50
2019-05-07T16:42:44.446Z,37.60
2019-05-07T16:45:14.119Z,37.40
2019-05-07T16:47:43.734Z,37.60
2019-05-07T16:50:13.779Z,37.80
2019-05-07T16:52:43.309Z,38.30
2019-05-07T16:55:12.872Z,38.50
2019-05-07T16:57:58.949Z,38.80
2019-05-07T17:00:34.405Z,39.20
2019-05-07T17:03:05.571Z,39.60
2019-05-07T17:05:35.015Z,40.00
2019-05-07T17:08:07.130Z,40.10
2019-05-07T17:10:36.564Z,40.40
2019-05-07T17:13:06.164Z,40.60
2019-05-07T17:15:37.270Z,40.60
2019-05-07T17:18:06.734Z,40.60
2019-05-07T17:20:36.179Z,40.70
2019-05-07T17:23:05.634Z,40.70
2019-05-07T17:25:38.243Z,40.50
2019-05-07T17:28:08.517Z,40.40
2019-05-07T17:30:38.548Z,40.50
2019-05-07T17:33:08.036Z,40.40
2019-05-07T17:35:37.509Z,40.50
2019-05-07T17:38:09.804Z,40.40
2019-05-07T17:40:38.042Z,40.20
2019-05-07T17:43:07.659Z,40.30
2019-05-07T17:45:37.110Z,40.30
2019-05-07T17:48:06.567Z,40.50
2019-05-07T17:50:37.755Z,40.60
2019-05-07T17:53:08.294Z,40.90
2019-05-07T17:55:38.423Z,41.40
2019-05-07T17:58:07.907Z,41.50
2019-05-07T18:00:38.034Z,41.20
2019-05-07T18:03:25.696Z,41.40
2019-05-07T18:05:55.147Z,41.10
2019-05-07T18:08:29.383Z,41.40
2019-05-07T18:11:02.548Z,41.90
2019-05-07T18:13:32.569Z,41.90
2019-05-07T18:16:03.883Z,41.80
2019-05-07T18:18:33.330Z,42.30
2019-05-07T18:21:04.970Z,42.10
2019-05-07T18:23:35.657Z,42.60
2019-05-07T18:26:05.187Z,42.60
2019-05-07T18:28:34.639Z,42.80
2019-05-07T18:31:04.165Z,43.00
2019-05-07T18:33:44.144Z,42.70
2019-05-07T18:36:13.762Z,43.10
2019-05-07T18:38:43.202Z,43.20
2019-05-07T18:41:12.673Z,43.30
2019-05-07T18:43:44.836Z,43.50
2019-05-07T18:46:14.283Z,43.80
2019-05-07T18:48:43.973Z,44.30
2019-05-07T18:51:13.455Z,44.90
2019-05-07T18:53:42.965Z,45.00
2019-05-07T18:56:12.811Z,45.20
2019-05-07T18:58:42.737Z,45.20
2019-05-07T19:01:13.934Z,45.20
2019-05-07T19:03:43.550Z,45.20
2019-05-07T19:06:18.770Z,45.30
2019-05-07T19:08:48.379Z,45.60
2019-05-07T19:11:17.907Z,45.70
2019-05-07T19:13:47.354Z,46.00
2019-05-07T19:16:16.818Z,46.20
2019-05-07T19:18:49.350Z,46.60
2019-05-07T19:21:18.823Z,47.00
2019-05-07T19:23:49.095Z,47.20
2019-05-07T19:26:18.754Z,47.50
2019-05-07T19:28:48.242Z,47.60
2019-05-07T19:31:17.682Z,47.80
2019-05-07T19:33:47.211Z,47.70
2019-05-07T19:36:16.712Z,47.80
2019-05-07T19:38:46.285Z,48.00
2019-05-07T19:41:19.743Z,48.30
2019-05-07T19:43:49.458Z,48.50
2019-05-07T19:46:19.093Z,48.80
2019-05-07T19:48:48.538Z,49.20
2019-05-07T19:51:18.092Z,49.50
2019-05-07T19:53:49.146Z,49.40
2019-05-07T19:56:21.876Z,49.70
2019-05-07T19:58:52.606Z,50.00
2019-05-07T20:01:24.051Z,50.20
2019-05-07T20:03:53.576Z,50.40
2019-05-07T20:06:23.537Z,50.60
2019-05-07T20:09:09.016Z,50.80
2019-05-07T20:11:33.786Z,51.00
2019-05-07T20:14:03.347Z,51.20
2019-05-07T20:16:36.227Z,51.40
2019-05-07T20:19:07.915Z,51.60
2019-05-07T20:21:38.380Z,51.70
2019-05-07T20:24:12.299Z,51.70
2019-05-07T20:26:43.007Z,51.90
2019-05-07T20:29:13.346Z,51.90
2019-05-07T20:31:45.866Z,52.10
2019-05-07T20:34:16.156Z,52.30
2019-05-07T20:36:46.705Z,52.50
2019-05-07T20:39:16.714Z,52.80
2019-05-07T20:41:49.696Z,53.00
2019-05-07T20:44:21.017Z,53.00
2019-05-07T20:46:50.615Z,52.80
2019-05-07T20:49:22.289Z,53.10
2019-05-07T20:51:52.669Z,53.20
2019-05-07T20:54:28.205Z,53.30
2019-05-07T20:57:14.353Z,53.60
2019-05-07T20:59:43.820Z,53.50
2019-05-07T21:02:13.282Z,53.70
2019-05-07T21:04:42.729Z,53.80
2019-05-07T21:07:13.748Z,53.90
2019-05-07T21:09:43.195Z,55.00
2019-05-07T21:12:12.992Z,54.50
2019-05-07T21:14:43.649Z,54.60
2019-05-07T21:17:13.188Z,54.70
2019-05-07T21:19:42.921Z,54.80
2019-05-07T21:22:13.507Z,54.90
2019-05-07T21:24:42.942Z,55.30
2019-05-07T21:27:12.490Z,55.30
2019-05-07T21:29:42.362Z,55.50
2019-05-07T21:32:12.511Z,55.50
2019-05-07T21:34:42.270Z,55.60
2019-05-07T21:37:12.652Z,55.70
2019-05-07T21:39:42.560Z,55.80
2019-05-07T21:42:14.199Z,55.90
2019-05-07T21:44:44.890Z,56.10
2019-05-07T21:47:14.330Z,56.30
2019-05-07T21:49:45.847Z,56.40
2019-05-07T21:52:15.279Z,56.50
2019-05-07T21:54:48.845Z,56.70
2019-05-07T21:57:30.016Z,56.70
2019-05-07T22:00:03.863Z,56.80
2019-05-07T22:02:36.161Z,56.80
2019-05-07T22:05:06.777Z,57.10
2019-05-07T22:07:36.234Z,57.30
2019-05-07T22:10:08.619Z,57.10
2019-05-07T22:12:38.137Z,57.10
2019-05-07T22:15:07.737Z,57.00
2019-05-07T22:17:37.199Z,57.30
2019-05-07T22:20:07.087Z,57.20
2019-05-07T22:22:37.654Z,57.10
2019-05-07T22:25:07.567Z,57.00
2019-05-07T22:27:38.710Z,57.10
2019-05-07T22:30:10.065Z,57.30
2019-05-07T22:32:44.070Z,57.30
2019-05-07T22:35:26.296Z,57.40
2019-05-07T22:38:03.866Z,57.40
2019-05-07T22:40:35.082Z,57.30
2019-05-07T22:43:06.162Z,57.30
2019-05-07T22:45:35.677Z,57.20
2019-05-07T22:48:05.253Z,57.10
2019-05-07T22:50:34.746Z,57.20
2019-05-07T22:53:04.219Z,57.30
2019-05-07T22:55:36.290Z,57.30
2019-05-07T22:58:07.381Z,57.30
2019-05-07T23:00:42.698Z,57.10
2019-05-07T23:03:12.867Z,57.10
2019-05-07T23:05:44.923Z,57.20
2019-05-07T23:08:13.414Z,57.30
2019-05-07T23:10:44.572Z,57.40
2019-05-07T23:13:13.936Z,57.40
2019-05-07T23:15:43.382Z,57.30
2019-05-07T23:18:13.804Z,57.10
2019-05-07T23:20:44.271Z,57.20
2019-05-07T23:23:14.204Z,57.10
2019-05-07T23:25:44.859Z,57.10
2019-05-07T23:28:17.732Z,57.20
2019-05-07T23:30:48.507Z,57.10
2019-05-07T23:33:17.966Z,57.10
2019-05-07T23:35:49.106Z,57.10
2019-05-07T23:38:18.639Z,57.30
2019-05-07T23:41:06.090Z,57.50
2019-05-07T23:43:35.725Z,57.50
2019-05-07T23:46:05.195Z,57.60
2019-05-07T23:48:34.673Z,57.80
2019-05-07T23:51:12.630Z,57.90
2019-05-07T23:53:54.769Z,57.70
2019-05-07T23:56:24.227Z,57.70
2019-05-07T23:59:14.960Z,57.80
